sensor_id;sensor_type;location;lat;lon;timestamp;P1;durP1;ratioP1;P2;durP2;ratioP2
62693;SDS011;48759;52.544;13.418;2023-06-10T00:01:52;17.80;;;7.00;;
62693;SDS011;48759;52.544;13.418;2023-06-10T00:04:24;20.67;;;7.30;;
62693;SDS011;48759;52.544;13.418;2023-06-10T00:06:51;10.73;;;6.50;;
62693;SDS011;48759;52.544;13.418;2023-06-10T00:09:18;21.03;;;7.43;;
62693;SDS011;48759;52.544;13.418;2023-06-10T00:11:46;15.03;;;7.80;;
62693;SDS011;48759;52.544;13.418;2023-06-10T00:14:13;13.13;;;6.53;;
62693;SDS011;48759;52.544;13.418;2023-06-10T00:16:40;12.83;;;6.40;;
62693;SDS011;48759;52.544;13.418;2023-06-10T00:19:10;13.90;;;7.30;;
62693;SDS011;48759;52.544;13.418;2023-06-10T00:21:40;13.70;;;6.17;;
62693;SDS011;48759;52.544;13.418;2023-06-10T00:24:07;13.53;;;6.70;;
62693;SDS011;48759;52.544;13.418;2023-06-10T00:26:37;12.83;;;6.70;;
62693;SDS011;48759;52.544;13.418;2023-06-10T00:29:04;18.27;;;6.90;;
62693;SDS011;48759;52.544;13.418;2023-06-10T00:31:31;11.63;;;6.47;;
62693;SDS011;48759;52.544;13.418;2023-06-10T00:33:58;13.23;;;6.10;;
62693;SDS011;48759;52.544;13.418;2023-06-10T00:36:25;16.13;;;7.80;;
62693;SDS011;48759;52.544;13.418;2023-06-10T00:38:53;15.10;;;6.70;;
62693;SDS011;48759;52.544;13.418;2023-06-10T00:41:19;11.90;;;6.90;;
62693;SDS011;48759;52.544;13.418;2023-06-10T00:43:46;19.33;;;7.27;;
62693;SDS011;48759;52.544;13.418;2023-06-10T00:46:13;20.03;;;6.97;;
62693;SDS011;48759;52.544;13.418;2023-06-10T00:48:41;12.93;;;6.40;;
62693;SDS011;48759;52.544;13.418;2023-06-10T00:51:11;15.20;;;6.93;;
62693;SDS011;48759;52.544;13.418;2023-06-10T00:53:39;10.83;;;6.60;;
62693;SDS011;48759;52.544;13.418;2023-06-10T00:56:08;11.50;;;6.80;;
62693;SDS011;48759;52.544;13.418;2023-06-10T00:58:36;25.83;;;6.83;;
62693;SDS011;48759;52.544;13.418;2023-06-10T01:01:03;18.37;;;6.53;;
62693;SDS011;48759;52.544;13.418;2023-06-10T01:03:30;9.87;;;6.73;;
62693;SDS011;48759;52.544;13.418;2023-06-10T01:06:03;11.70;;;5.93;;
62693;SDS011;48759;52.544;13.418;2023-06-10T01:08:38;14.70;;;6.70;;
62693;SDS011;48759;52.544;13.418;2023-06-10T01:11:13;10.30;;;6.60;;
62693;SDS011;48759;52.544;13.418;2023-06-10T01:13:47;20.47;;;7.10;;
62693;SDS011;48759;52.544;13.418;2023-06-10T01:16:17;17.60;;;7.17;;
62693;SDS011;48759;52.544;13.418;2023-06-10T01:18:47;19.63;;;8.00;;
62693;SDS011;48759;52.544;13.418;2023-06-10T01:21:19;23.53;;;6.07;;
62693;SDS011;48759;52.544;13.418;2023-06-10T01:23:49;15.90;;;6.57;;
62693;SDS011;48759;52.544;13.418;2023-06-10T01:26:19;17.60;;;7.57;;
62693;SDS011;48759;52.544;13.418;2023-06-10T01:28:51;15.77;;;7.33;;
62693;SDS011;48759;52.544;13.418;2023-06-10T01:31:25;17.40;;;7.03;;
62693;SDS011;48759;52.544;13.418;2023-06-10T01:34:01;15.57;;;6.87;;
62693;SDS011;48759;52.544;13.418;2023-06-10T01:36:34;12.00;;;7.07;;
62693;SDS011;48759;52.544;13.418;2023-06-10T01:39:02;14.30;;;6.80;;
62693;SDS011;48759;52.544;13.418;2023-06-10T01:41:31;19.33;;;8.43;;
62693;SDS011;48759;52.544;13.418;2023-06-10T01:43:58;18.73;;;6.57;;
62693;SDS011;48759;52.544;13.418;2023-06-10T01:46:27;12.30;;;6.50;;
62693;SDS011;48759;52.544;13.418;2023-06-10T01:48:53;17.57;;;7.03;;
62693;SDS011;48759;52.544;13.418;2023-06-10T01:51:20;12.67;;;7.40;;
62693;SDS011;48759;52.544;13.418;2023-06-10T01:53:48;16.90;;;6.67;;
62693;SDS011;48759;52.544;13.418;2023-06-10T01:56:15;15.70;;;6.30;;
62693;SDS011;48759;52.544;13.418;2023-06-10T01:58:45;23.13;;;7.20;;
62693;SDS011;48759;52.544;13.418;2023-06-10T02:01:11;16.33;;;7.33;;
62693;SDS011;48759;52.544;13.418;2023-06-10T02:03:38;18.20;;;7.30;;
62693;SDS011;48759;52.544;13.418;2023-06-10T02:06:05;21.40;;;6.93;;
62693;SDS011;48759;52.544;13.418;2023-06-10T02:08:32;12.10;;;6.70;;
62693;SDS011;48759;52.544;13.418;2023-06-10T02:11:00;14.93;;;6.93;;
62693;SDS011;48759;52.544;13.418;2023-06-10T02:13:27;22.77;;;8.03;;
62693;SDS011;48759;52.544;13.418;2023-06-10T02:15:53;14.33;;;6.83;;
62693;SDS011;48759;52.544;13.418;2023-06-10T02:18:23;13.63;;;7.00;;
62693;SDS011;48759;52.544;13.418;2023-06-10T02:20:50;25.97;;;8.57;;
62693;SDS011;48759;52.544;13.418;2023-06-10T02:23:17;11.30;;;7.30;;
62693;SDS011;48759;52.544;13.418;2023-06-10T02:25:43;12.50;;;6.90;;
62693;SDS011;48759;52.544;13.418;2023-06-10T02:28:11;23.40;;;7.30;;
62693;SDS011;48759;52.544;13.418;2023-06-10T02:30:39;18.87;;;7.30;;
62693;SDS011;48759;52.544;13.418;2023-06-10T02:33:07;14.10;;;7.43;;
62693;SDS011;48759;52.544;13.418;2023-06-10T02:35:36;13.67;;;6.90;;
62693;SDS011;48759;52.544;13.418;2023-06-10T02:38:03;19.03;;;7.13;;
62693;SDS011;48759;52.544;13.418;2023-06-10T02:40:30;12.67;;;7.23;;
62693;SDS011;48759;52.544;13.418;2023-06-10T02:42:57;20.30;;;7.20;;
62693;SDS011;48759;52.544;13.418;2023-06-10T02:45:26;17.23;;;8.20;;
62693;SDS011;48759;52.544;13.418;2023-06-10T02:47:53;17.50;;;7.37;;
62693;SDS011;48759;52.544;13.418;2023-06-10T02:50:20;21.93;;;9.13;;
62693;SDS011;48759;52.544;13.418;2023-06-10T02:52:46;18.57;;;8.10;;
62693;SDS011;48759;52.544;13.418;2023-06-10T02:55:17;16.97;;;8.37;;
62693;SDS011;48759;52.544;13.418;2023-06-10T02:57:44;15.10;;;7.33;;
62693;SDS011;48759;52.544;13.418;2023-06-10T03:00:11;13.87;;;6.90;;
62693;SDS011;48759;52.544;13.418;2023-06-10T03:02:42;16.93;;;7.37;;
62693;SDS011;48759;52.544;13.418;2023-06-10T03:05:11;16.70;;;7.80;;
62693;SDS011;48759;52.544;13.418;2023-06-10T03:07:38;18.27;;;8.00;;
62693;SDS011;48759;52.544;13.418;2023-06-10T03:10:06;16.50;;;8.23;;
62693;SDS011;48759;52.544;13.418;2023-06-10T03:12:33;17.97;;;7.83;;
62693;SDS011;48759;52.544;13.418;2023-06-10T03:15:00;13.83;;;7.80;;
62693;SDS011;48759;52.544;13.418;2023-06-10T03:17:29;17.60;;;7.40;;
62693;SDS011;48759;52.544;13.418;2023-06-10T03:19:57;16.67;;;7.80;;
62693;SDS011;48759;52.544;13.418;2023-06-10T03:22:25;15.03;;;8.40;;
62693;SDS011;48759;52.544;13.418;2023-06-10T03:24:54;13.50;;;7.40;;
62693;SDS011;48759;52.544;13.418;2023-06-10T03:27:22;18.10;;;7.63;;
62693;SDS011;48759;52.544;13.418;2023-06-10T03:29:49;16.67;;;7.70;;
62693;SDS011;48759;52.544;13.418;2023-06-10T03:32:16;15.67;;;7.00;;
62693;SDS011;48759;52.544;13.418;2023-06-10T03:34:43;11.83;;;7.63;;
62693;SDS011;48759;52.544;13.418;2023-06-10T03:37:14;19.43;;;8.93;;
62693;SDS011;48759;52.544;13.418;2023-06-10T03:39:40;15.97;;;8.03;;
62693;SDS011;48759;52.544;13.418;2023-06-10T03:42:07;9.97;;;7.50;;
62693;SDS011;48759;52.544;13.418;2023-06-10T03:44:34;17.80;;;8.27;;
62693;SDS011;48759;52.544;13.418;2023-06-10T03:47:01;19.70;;;7.90;;
62693;SDS011;48759;52.544;13.418;2023-06-10T03:49:29;13.20;;;8.40;;
62693;SDS011;48759;52.544;13.418;2023-06-10T03:51:58;13.67;;;7.23;;
62693;SDS011;48759;52.544;13.418;2023-06-10T03:54:26;12.63;;;7.83;;
62693;SDS011;48759;52.544;13.418;2023-06-10T03:56:53;15.17;;;7.00;;
62693;SDS011;48759;52.544;13.418;2023-06-10T03:59:22;12.13;;;7.00;;
62693;SDS011;48759;52.544;13.418;2023-06-10T04:01:51;15.63;;;7.47;;
62693;SDS011;48759;52.544;13.418;2023-06-10T04:04:19;11.43;;;7.77;;
62693;SDS011;48759;52.544;13.418;2023-06-10T04:06:49;16.73;;;8.40;;
62693;SDS011;48759;52.544;13.418;2023-06-10T04:09:16;20.13;;;8.23;;
62693;SDS011;48759;52.544;13.418;2023-06-10T04:11:55;14.80;;;8.90;;
62693;SDS011;48759;52.544;13.418;2023-06-10T04:14:23;20.30;;;8.90;;
62693;SDS011;48759;52.544;13.418;2023-06-10T04:16:49;16.50;;;7.83;;
62693;SDS011;48759;52.544;13.418;2023-06-10T04:19:16;13.00;;;7.67;;
62693;SDS011;48759;52.544;13.418;2023-06-10T04:21:43;15.03;;;7.90;;
62693;SDS011;48759;52.544;13.418;2023-06-10T04:24:09;16.30;;;8.33;;
62693;SDS011;48759;52.544;13.418;2023-06-10T04:26:37;15.23;;;8.57;;
62693;SDS011;48759;52.544;13.418;2023-06-10T04:29:05;14.23;;;8.10;;
62693;SDS011;48759;52.544;13.418;2023-06-10T04:31:32;11.30;;;7.70;;
62693;SDS011;48759;52.544;13.418;2023-06-10T04:33:59;12.67;;;8.10;;
62693;SDS011;48759;52.544;13.418;2023-06-10T04:36:27;17.40;;;9.13;;
62693;SDS011;48759;52.544;13.418;2023-06-10T04:38:55;15.30;;;8.00;;
62693;SDS011;48759;52.544;13.418;2023-06-10T04:41:21;16.13;;;8.73;;
62693;SDS011;48759;52.544;13.418;2023-06-10T04:43:48;10.13;;;7.50;;
62693;SDS011;48759;52.544;13.418;2023-06-10T04:46:16;18.23;;;8.50;;
62693;SDS011;48759;52.544;13.418;2023-06-10T04:48:43;17.40;;;8.63;;
62693;SDS011;48759;52.544;13.418;2023-06-10T04:51:12;15.67;;;7.60;;
62693;SDS011;48759;52.544;13.418;2023-06-10T04:53:39;12.97;;;7.03;;
62693;SDS011;48759;52.544;13.418;2023-06-10T04:56:07;12.93;;;7.93;;
62693;SDS011;48759;52.544;13.418;2023-06-10T04:58:35;15.73;;;8.80;;
62693;SDS011;48759;52.544;13.418;2023-06-10T05:01:02;13.77;;;7.23;;
62693;SDS011;48759;52.544;13.418;2023-06-10T05:03:30;13.80;;;8.30;;
62693;SDS011;48759;52.544;13.418;2023-06-10T05:05:57;14.53;;;8.57;;
62693;SDS011;48759;52.544;13.418;2023-06-10T05:08:24;13.43;;;7.60;;
62693;SDS011;48759;52.544;13.418;2023-06-10T05:10:58;16.70;;;7.70;;
62693;SDS011;48759;52.544;13.418;2023-06-10T05:13:25;15.50;;;7.60;;
62693;SDS011;48759;52.544;13.418;2023-06-10T05:15:52;14.70;;;8.40;;
62693;SDS011;48759;52.544;13.418;2023-06-10T05:18:20;13.40;;;8.23;;
62693;SDS011;48759;52.544;13.418;2023-06-10T05:20:48;11.07;;;7.13;;
62693;SDS011;48759;52.544;13.418;2023-06-10T05:23:15;14.10;;;8.40;;
62693;SDS011;48759;52.544;13.418;2023-06-10T05:25:42;11.70;;;8.80;;
62693;SDS011;48759;52.544;13.418;2023-06-10T05:28:10;21.30;;;8.60;;
62693;SDS011;48759;52.544;13.418;2023-06-10T05:30:38;14.13;;;7.67;;
62693;SDS011;48759;52.544;13.418;2023-06-10T05:33:05;17.83;;;8.50;;
62693;SDS011;48759;52.544;13.418;2023-06-10T05:35:32;9.70;;;6.60;;
62693;SDS011;48759;52.544;13.418;2023-06-10T05:38:01;13.20;;;8.27;;
62693;SDS011;48759;52.544;13.418;2023-06-10T05:40:28;20.67;;;8.20;;
62693;SDS011;48759;52.544;13.418;2023-06-10T05:42:55;25.03;;;8.10;;
62693;SDS011;48759;52.544;13.418;2023-06-10T05:45:23;20.77;;;7.67;;
62693;SDS011;48759;52.544;13.418;2023-06-10T05:47:53;10.93;;;7.03;;
62693;SDS011;48759;52.544;13.418;2023-06-10T05:50:20;10.10;;;6.93;;
62693;SDS011;48759;52.544;13.418;2023-06-10T05:52:47;19.07;;;7.80;;
62693;SDS011;48759;52.544;13.418;2023-06-10T05:55:15;10.67;;;7.40;;
62693;SDS011;48759;52.544;13.418;2023-06-10T05:57:42;15.30;;;7.40;;
62693;SDS011;48759;52.544;13.418;2023-06-10T06:00:11;11.47;;;7.77;;
62693;SDS011;48759;52.544;13.418;2023-06-10T06:02:44;18.27;;;7.90;;
62693;SDS011;48759;52.544;13.418;2023-06-10T06:05:10;16.73;;;8.37;;
62693;SDS011;48759;52.544;13.418;2023-06-10T06:07:40;12.20;;;7.97;;
62693;SDS011;48759;52.544;13.418;2023-06-10T06:10:07;13.83;;;8.77;;
62693;SDS011;48759;52.544;13.418;2023-06-10T06:12:35;13.33;;;7.60;;
62693;SDS011;48759;52.544;13.418;2023-06-10T06:15:02;13.50;;;8.10;;
62693;SDS011;48759;52.544;13.418;2023-06-10T06:17:29;13.37;;;7.23;;
62693;SDS011;48759;52.544;13.418;2023-06-10T06:19:57;21.63;;;7.87;;
62693;SDS011;48759;52.544;13.418;2023-06-10T06:22:27;14.17;;;7.80;;
62693;SDS011;48759;52.544;13.418;2023-06-10T06:24:58;13.37;;;7.90;;
62693;SDS011;48759;52.544;13.418;2023-06-10T06:27:25;15.27;;;8.70;;
62693;SDS011;48759;52.544;13.418;2023-06-10T06:29:57;12.53;;;8.00;;
62693;SDS011;48759;52.544;13.418;2023-06-10T06:32:27;11.67;;;7.10;;
62693;SDS011;48759;52.544;13.418;2023-06-10T06:34:54;12.20;;;7.30;;
62693;SDS011;48759;52.544;13.418;2023-06-10T06:37:23;10.83;;;7.33;;
62693;SDS011;48759;52.544;13.418;2023-06-10T06:39:50;15.23;;;6.87;;
62693;SDS011;48759;52.544;13.418;2023-06-10T06:42:18;9.20;;;7.27;;
62693;SDS011;48759;52.544;13.418;2023-06-10T06:44:47;13.57;;;7.57;;
62693;SDS011;48759;52.544;13.418;2023-06-10T06:47:15;12.33;;;7.27;;
62693;SDS011;48759;52.544;13.418;2023-06-10T06:49:44;13.20;;;8.30;;
62693;SDS011;48759;52.544;13.418;2023-06-10T06:52:11;12.40;;;7.30;;
62693;SDS011;48759;52.544;13.418;2023-06-10T06:54:38;17.20;;;7.50;;
62693;SDS011;48759;52.544;13.418;2023-06-10T06:57:05;12.77;;;7.70;;
62693;SDS011;48759;52.544;13.418;2023-06-10T06:59:33;8.23;;;7.27;;
62693;SDS011;48759;52.544;13.418;2023-06-10T07:02:00;14.50;;;7.80;;
62693;SDS011;48759;52.544;13.418;2023-06-10T07:04:28;12.27;;;7.60;;
62693;SDS011;48759;52.544;13.418;2023-06-10T07:06:55;10.40;;;7.47;;
62693;SDS011;48759;52.544;13.418;2023-06-10T07:09:22;13.70;;;7.20;;
62693;SDS011;48759;52.544;13.418;2023-06-10T07:11:49;11.00;;;6.90;;
62693;SDS011;48759;52.544;13.418;2023-06-10T07:14:15;15.40;;;7.90;;
62693;SDS011;48759;52.544;13.418;2023-06-10T07:16:42;20.93;;;8.00;;
62693;SDS011;48759;52.544;13.418;2023-06-10T07:19:10;12.40;;;7.50;;
62693;SDS011;48759;52.544;13.418;2023-06-10T07:21:38;10.90;;;7.53;;
62693;SDS011;48759;52.544;13.418;2023-06-10T07:24:05;13.83;;;7.60;;
62693;SDS011;48759;52.544;13.418;2023-06-10T07:26:32;14.43;;;7.10;;
62693;SDS011;48759;52.544;13.418;2023-06-10T07:28:59;12.70;;;7.60;;
62693;SDS011;48759;52.544;13.418;2023-06-10T07:31:26;13.77;;;8.30;;
62693;SDS011;48759;52.544;13.418;2023-06-10T07:33:52;16.40;;;8.27;;
62693;SDS011;48759;52.544;13.418;2023-06-10T07:36:19;18.83;;;8.13;;
62693;SDS011;48759;52.544;13.418;2023-06-10T07:38:48;15.03;;;7.10;;
62693;SDS011;48759;52.544;13.418;2023-06-10T07:41:17;13.10;;;7.90;;
62693;SDS011;48759;52.544;13.418;2023-06-10T07:43:44;21.30;;;8.03;;
62693;SDS011;48759;52.544;13.418;2023-06-10T07:46:11;15.30;;;8.73;;
62693;SDS011;48759;52.544;13.418;2023-06-10T07:48:39;21.93;;;8.40;;
62693;SDS011;48759;52.544;13.418;2023-06-10T07:51:06;8.70;;;7.30;;
62693;SDS011;48759;52.544;13.418;2023-06-10T07:53:33;12.20;;;8.07;;
62693;SDS011;48759;52.544;13.418;2023-06-10T07:56:01;7.67;;;6.87;;
62693;SDS011;48759;52.544;13.418;2023-06-10T07:58:28;11.90;;;7.50;;
62693;SDS011;48759;52.544;13.418;2023-06-10T08:00:55;13.63;;;7.53;;
62693;SDS011;48759;52.544;13.418;2023-06-10T08:03:24;14.73;;;9.53;;
62693;SDS011;48759;52.544;13.418;2023-06-10T08:05:51;30.37;;;8.97;;
62693;SDS011;48759;52.544;13.418;2023-06-10T08:08:17;14.53;;;7.67;;
62693;SDS011;48759;52.544;13.418;2023-06-10T08:10:44;15.67;;;7.57;;
62693;SDS011;48759;52.544;13.418;2023-06-10T08:13:13;14.00;;;7.73;;
62693;SDS011;48759;52.544;13.418;2023-06-10T08:15:39;14.33;;;9.10;;
62693;SDS011;48759;52.544;13.418;2023-06-10T08:18:06;12.93;;;6.80;;
62693;SDS011;48759;52.544;13.418;2023-06-10T08:20:33;11.93;;;7.60;;
62693;SDS011;48759;52.544;13.418;2023-06-10T08:23:00;14.47;;;7.60;;
62693;SDS011;48759;52.544;13.418;2023-06-10T08:25:27;12.00;;;7.70;;
62693;SDS011;48759;52.544;13.418;2023-06-10T08:27:54;9.70;;;7.50;;
62693;SDS011;48759;52.544;13.418;2023-06-10T08:30:23;16.37;;;7.83;;
62693;SDS011;48759;52.544;13.418;2023-06-10T08:32:50;11.40;;;7.93;;
62693;SDS011;48759;52.544;13.418;2023-06-10T08:35:17;12.10;;;7.37;;
62693;SDS011;48759;52.544;13.418;2023-06-10T08:37:44;10.53;;;7.93;;
62693;SDS011;48759;52.544;13.418;2023-06-10T08:40:12;13.07;;;7.00;;
62693;SDS011;48759;52.544;13.418;2023-06-10T08:42:43;11.00;;;7.90;;
62693;SDS011;48759;52.544;13.418;2023-06-10T08:45:16;16.40;;;8.80;;
62693;SDS011;48759;52.544;13.418;2023-06-10T08:47:45;12.33;;;7.40;;
62693;SDS011;48759;52.544;13.418;2023-06-10T08:50:17;15.20;;;7.60;;
62693;SDS011;48759;52.544;13.418;2023-06-10T08:52:46;12.53;;;7.87;;
62693;SDS011;48759;52.544;13.418;2023-06-10T08:55:18;10.60;;;7.10;;
62693;SDS011;48759;52.544;13.418;2023-06-10T08:57:51;14.93;;;8.40;;
62693;SDS011;48759;52.544;13.418;2023-06-10T09:00:19;11.30;;;7.70;;
62693;SDS011;48759;52.544;13.418;2023-06-10T09:02:48;14.57;;;7.87;;
62693;SDS011;48759;52.544;13.418;2023-06-10T09:05:18;12.40;;;7.50;;
62693;SDS011;48759;52.544;13.418;2023-06-10T09:07:47;11.77;;;7.20;;
62693;SDS011;48759;52.544;13.418;2023-06-10T09:10:17;13.23;;;8.40;;
62693;SDS011;48759;52.544;13.418;2023-06-10T09:12:44;12.37;;;8.40;;
62693;SDS011;48759;52.544;13.418;2023-06-10T09:15:11;12.70;;;7.53;;
62693;SDS011;48759;52.544;13.418;2023-06-10T09:17:39;15.40;;;7.93;;
62693;SDS011;48759;52.544;13.418;2023-06-10T09:20:11;13.20;;;6.87;;
62693;SDS011;48759;52.544;13.418;2023-06-10T09:22:40;9.03;;;6.87;;
62693;SDS011;48759;52.544;13.418;2023-06-10T09:25:13;17.87;;;6.93;;
62693;SDS011;48759;52.544;13.418;2023-06-10T09:27:45;13.53;;;8.30;;
62693;SDS011;48759;52.544;13.418;2023-06-10T09:30:25;13.20;;;7.53;;
62693;SDS011;48759;52.544;13.418;2023-06-10T09:32:57;16.30;;;8.27;;
62693;SDS011;48759;52.544;13.418;2023-06-10T09:35:28;16.90;;;8.17;;
62693;SDS011;48759;52.544;13.418;2023-06-10T09:37:57;15.10;;;8.90;;
62693;SDS011;48759;52.544;13.418;2023-06-10T09:40:25;12.23;;;8.20;;
62693;SDS011;48759;52.544;13.418;2023-06-10T09:42:54;15.53;;;8.47;;
62693;SDS011;48759;52.544;13.418;2023-06-10T09:45:29;14.80;;;7.67;;
62693;SDS011;48759;52.544;13.418;2023-06-10T09:47:58;11.70;;;8.10;;
62693;SDS011;48759;52.544;13.418;2023-06-10T09:50:34;13.80;;;9.23;;
62693;SDS011;48759;52.544;13.418;2023-06-10T09:53:11;11.87;;;7.80;;
62693;SDS011;48759;52.544;13.418;2023-06-10T09:55:41;14.80;;;8.40;;
62693;SDS011;48759;52.544;13.418;2023-06-10T09:58:11;15.60;;;8.70;;
62693;SDS011;48759;52.544;13.418;2023-06-10T10:00:41;15.33;;;7.97;;
62693;SDS011;48759;52.544;13.418;2023-06-10T10:03:08;10.80;;;8.00;;
62693;SDS011;48759;52.544;13.418;2023-06-10T10:05:37;17.03;;;9.30;;
62693;SDS011;48759;52.544;13.418;2023-06-10T10:08:04;13.53;;;8.47;;
62693;SDS011;48759;52.544;13.418;2023-06-10T10:10:34;14.50;;;8.10;;
62693;SDS011;48759;52.544;13.418;2023-06-10T10:13:04;10.93;;;8.20;;
62693;SDS011;48759;52.544;13.418;2023-06-10T10:15:37;15.50;;;8.27;;
62693;SDS011;48759;52.544;13.418;2023-06-10T10:18:07;27.03;;;9.30;;
62693;SDS011;48759;52.544;13.418;2023-06-10T10:20:41;13.40;;;9.20;;
62693;SDS011;48759;52.544;13.418;2023-06-10T10:23:14;12.27;;;8.30;;
62693;SDS011;48759;52.544;13.418;2023-06-10T10:25:42;16.23;;;8.00;;
62693;SDS011;48759;52.544;13.418;2023-06-10T10:28:10;13.53;;;8.07;;
62693;SDS011;48759;52.544;13.418;2023-06-10T10:30:40;13.53;;;7.83;;
62693;SDS011;48759;52.544;13.418;2023-06-10T10:33:09;7.93;;;7.13;;
62693;SDS011;48759;52.544;13.418;2023-06-10T10:35:44;8.27;;;6.13;;
62693;SDS011;48759;52.544;13.418;2023-06-10T10:38:12;11.67;;;6.50;;
62693;SDS011;48759;52.544;13.418;2023-06-10T10:40:39;8.23;;;6.43;;
62693;SDS011;48759;52.544;13.418;2023-06-10T10:43:06;6.97;;;6.27;;
62693;SDS011;48759;52.544;13.418;2023-06-10T10:45:34;11.87;;;6.37;;
62693;SDS011;48759;52.544;13.418;2023-06-10T10:48:04;6.83;;;5.97;;
62693;SDS011;48759;52.544;13.418;2023-06-10T10:50:37;7.60;;;6.23;;
62693;SDS011;48759;52.544;13.418;2023-06-10T10:53:05;7.00;;;6.23;;
62693;SDS011;48759;52.544;13.418;2023-06-10T10:55:32;8.23;;;6.30;;
62693;SDS011;48759;52.544;13.418;2023-06-10T10:57:59;6.60;;;5.93;;
62693;SDS011;48759;52.544;13.418;2023-06-10T11:00:30;6.73;;;5.87;;
62693;SDS011;48759;52.544;13.418;2023-06-10T11:02:59;13.93;;;5.83;;
62693;SDS011;48759;52.544;13.418;2023-06-10T11:05:31;6.53;;;5.80;;
62693;SDS011;48759;52.544;13.418;2023-06-10T11:08:03;6.50;;;5.90;;
62693;SDS011;48759;52.544;13.418;2023-06-10T11:10:32;6.50;;;5.37;;
62693;SDS011;48759;52.544;13.418;2023-06-10T11:13:01;7.63;;;6.27;;
62693;SDS011;48759;52.544;13.418;2023-06-10T11:15:39;13.50;;;6.00;;
62693;SDS011;48759;52.544;13.418;2023-06-10T11:18:11;6.30;;;5.40;;
62693;SDS011;48759;52.544;13.418;2023-06-10T11:20:55;9.63;;;6.93;;
62693;SDS011;48759;52.544;13.418;2023-06-10T11:23:32;11.83;;;6.33;;
62693;SDS011;48759;52.544;13.418;2023-06-10T11:26:19;12.03;;;5.90;;
62693;SDS011;48759;52.544;13.418;2023-06-10T11:29:01;7.47;;;5.53;;
62693;SDS011;48759;52.544;13.418;2023-06-10T11:31:42;7.27;;;6.60;;
62693;SDS011;48759;52.544;13.418;2023-06-10T11:34:15;9.20;;;6.53;;
62693;SDS011;48759;52.544;13.418;2023-06-10T11:36:49;7.57;;;5.87;;
62693;SDS011;48759;52.544;13.418;2023-06-10T11:39:17;6.47;;;5.87;;
62693;SDS011;48759;52.544;13.418;2023-06-10T11:41:49;10.60;;;6.73;;
62693;SDS011;48759;52.544;13.418;2023-06-10T11:44:18;7.03;;;6.40;;
62693;SDS011;48759;52.544;13.418;2023-06-10T11:46:47;7.67;;;6.97;;
62693;SDS011;48759;52.544;13.418;2023-06-10T11:49:14;10.40;;;7.10;;
62693;SDS011;48759;52.544;13.418;2023-06-10T11:51:42;7.73;;;6.93;;
62693;SDS011;48759;52.544;13.418;2023-06-10T11:54:14;12.83;;;7.93;;
62693;SDS011;48759;52.544;13.418;2023-06-10T11:56:43;22.60;;;8.73;;
62693;SDS011;48759;52.544;13.418;2023-06-10T11:59:12;8.57;;;7.70;;
62693;SDS011;48759;52.544;13.418;2023-06-10T12:01:42;9.27;;;7.90;;
62693;SDS011;48759;52.544;13.418;2023-06-10T12:04:11;11.33;;;7.97;;
62693;SDS011;48759;52.544;13.418;2023-06-10T12:06:41;15.10;;;7.50;;
62693;SDS011;48759;52.544;13.418;2023-06-10T12:09:17;11.10;;;8.13;;
62693;SDS011;48759;52.544;13.418;2023-06-10T12:11:45;8.90;;;7.00;;
62693;SDS011;48759;52.544;13.418;2023-06-10T12:14:16;12.10;;;6.93;;
62693;SDS011;48759;52.544;13.418;2023-06-10T12:16:48;7.90;;;7.10;;
62693;SDS011;48759;52.544;13.418;2023-06-10T12:19:15;8.23;;;7.03;;
62693;SDS011;48759;52.544;13.418;2023-06-10T12:21:42;8.70;;;5.90;;
62693;SDS011;48759;52.544;13.418;2023-06-10T12:24:11;6.73;;;6.13;;
62693;SDS011;48759;52.544;13.418;2023-06-10T12:26:41;6.20;;;5.70;;
62693;SDS011;48759;52.544;13.418;2023-06-10T12:31:57;6.13;;;5.43;;
62693;SDS011;48759;52.544;13.418;2023-06-10T12:34:31;7.17;;;6.10;;
62693;SDS011;48759;52.544;13.418;2023-06-10T12:37:01;8.60;;;6.23;;
62693;SDS011;48759;52.544;13.418;2023-06-10T12:39:30;7.60;;;6.73;;
62693;SDS011;48759;52.544;13.418;2023-06-10T12:41:58;9.17;;;7.10;;
62693;SDS011;48759;52.544;13.418;2023-06-10T12:44:31;9.50;;;7.20;;
62693;SDS011;48759;52.544;13.418;2023-06-10T12:46:59;10.43;;;8.53;;
62693;SDS011;48759;52.544;13.418;2023-06-10T12:49:26;8.23;;;7.20;;
62693;SDS011;48759;52.544;13.418;2023-06-10T12:51:53;9.73;;;8.83;;
62693;SDS011;48759;52.544;13.418;2023-06-10T12:54:21;11.73;;;8.33;;
62693;SDS011;48759;52.544;13.418;2023-06-10T12:56:48;10.00;;;9.00;;
62693;SDS011;48759;52.544;13.418;2023-06-10T12:59:15;9.87;;;8.80;;
62693;SDS011;48759;52.544;13.418;2023-06-10T13:01:44;13.30;;;9.30;;
62693;SDS011;48759;52.544;13.418;2023-06-10T13:04:10;10.47;;;8.60;;
62693;SDS011;48759;52.544;13.418;2023-06-10T13:06:37;9.60;;;8.67;;
62693;SDS011;48759;52.544;13.418;2023-06-10T13:09:07;13.13;;;8.97;;
62693;SDS011;48759;52.544;13.418;2023-06-10T13:11:33;9.00;;;8.20;;
62693;SDS011;48759;52.544;13.418;2023-06-10T13:14:02;11.60;;;8.40;;
62693;SDS011;48759;52.544;13.418;2023-06-10T13:16:31;15.80;;;8.40;;
62693;SDS011;48759;52.544;13.418;2023-06-10T13:18:59;11.60;;;9.07;;
62693;SDS011;48759;52.544;13.418;2023-06-10T13:21:27;12.97;;;9.03;;
62693;SDS011;48759;52.544;13.418;2023-06-10T13:23:54;10.30;;;8.33;;
62693;SDS011;48759;52.544;13.418;2023-06-10T13:26:21;11.00;;;7.90;;
62693;SDS011;48759;52.544;13.418;2023-06-10T13:28:48;13.13;;;8.70;;
62693;SDS011;48759;52.544;13.418;2023-06-10T13:31:14;13.13;;;8.73;;
62693;SDS011;48759;52.544;13.418;2023-06-10T13:33:41;9.00;;;7.90;;
62693;SDS011;48759;52.544;13.418;2023-06-10T13:36:10;8.57;;;7.63;;
62693;SDS011;48759;52.544;13.418;2023-06-10T13:38:37;10.77;;;8.33;;
62693;SDS011;48759;52.544;13.418;2023-06-10T13:41:04;11.67;;;7.90;;
62693;SDS011;48759;52.544;13.418;2023-06-10T13:43:34;14.60;;;8.50;;
62693;SDS011;48759;52.544;13.418;2023-06-10T13:46:01;9.10;;;7.53;;
62693;SDS011;48759;52.544;13.418;2023-06-10T13:48:28;12.30;;;7.57;;
62693;SDS011;48759;52.544;13.418;2023-06-10T13:50:56;9.57;;;7.40;;
62693;SDS011;48759;52.544;13.418;2023-06-10T13:53:24;10.83;;;8.00;;
62693;SDS011;48759;52.544;13.418;2023-06-10T13:55:51;11.60;;;7.20;;
62693;SDS011;48759;52.544;13.418;2023-06-10T13:58:17;8.23;;;7.40;;
62693;SDS011;48759;52.544;13.418;2023-06-10T14:00:44;8.57;;;7.53;;
62693;SDS011;48759;52.544;13.418;2023-06-10T14:03:12;32.57;;;7.77;;
62693;SDS011;48759;52.544;13.418;2023-06-10T14:05:39;7.50;;;6.80;;
62693;SDS011;48759;52.544;13.418;2023-06-10T14:08:06;8.83;;;6.97;;
62693;SDS011;48759;52.544;13.418;2023-06-10T14:10:34;7.60;;;6.90;;
62693;SDS011;48759;52.544;13.418;2023-06-10T14:13:00;11.53;;;6.97;;
62693;SDS011;48759;52.544;13.418;2023-06-10T14:15:27;7.80;;;6.80;;
62693;SDS011;48759;52.544;13.418;2023-06-10T14:17:54;6.47;;;5.87;;
62693;SDS011;48759;52.544;13.418;2023-06-10T14:20:21;7.50;;;5.60;;
62693;SDS011;48759;52.544;13.418;2023-06-10T14:22:50;7.27;;;6.47;;
62693;SDS011;48759;52.544;13.418;2023-06-10T14:25:17;9.10;;;6.35;;
62693;SDS011;48759;52.544;13.418;2023-06-10T14:27:45;6.03;;;5.45;;
62693;SDS011;48759;52.544;13.418;2023-06-10T14:30:12;5.70;;;5.30;;
62693;SDS011;48759;52.544;13.418;2023-06-10T14:32:39;6.88;;;5.40;;
62693;SDS011;48759;52.544;13.418;2023-06-10T14:35:06;5.90;;;5.35;;